sensor_id;sensor_type;location;lat;lon;timestamp;P1;durP1;ratioP1;P2;durP2;ratioP2
20810;SDS011;10566;52.928;10.522;2023-02-27T00:00:54;9.73;;;3.50;;
20810;SDS011;10566;52.928;10.522;2023-02-27T00:03:20;7.87;;;3.23;;
20810;SDS011;10566;52.928;10.522;2023-02-27T00:05:46;8.30;;;3.87;;
20810;SDS011;10566;52.928;10.522;2023-02-27T00:08:12;7.90;;;3.10;;
20810;SDS011;10566;52.928;10.522;2023-02-27T00:10:38;6.67;;;2.90;;
20810;SDS011;10566;52.928;10.522;2023-02-27T00:13:04;8.93;;;3.20;;
20810;SDS011;10566;52.928;10.522;2023-02-27T00:15:30;9.87;;;3.00;;
20810;SDS011;10566;52.928;10.522;2023-02-27T00:17:57;7.73;;;2.90;;
20810;SDS011;10566;52.928;10.522;2023-02-27T00:20:23;8.80;;;3.50;;
20810;SDS011;10566;52.928;10.522;2023-02-27T00:22:49;7.00;;;2.93;;
20810;SDS011;10566;52.928;10.522;2023-02-27T00:25:16;10.07;;;3.33;;
20810;SDS011;10566;52.928;10.522;2023-02-27T00:27:42;8.60;;;3.40;;
20810;SDS011;10566;52.928;10.522;2023-02-27T00:30:09;9.00;;;3.20;;
20810;SDS011;10566;52.928;10.522;2023-02-27T00:32:36;8.93;;;2.97;;
20810;SDS011;10566;52.928;10.522;2023-02-27T00:35:02;7.53;;;3.33;;
20810;SDS011;10566;52.928;10.522;2023-02-27T00:37:29;7.77;;;3.37;;
20810;SDS011;10566;52.928;10.522;2023-02-27T00:39:55;10.63;;;3.63;;
20810;SDS011;10566;52.928;10.522;2023-02-27T00:42:21;8.77;;;3.93;;
20810;SDS011;10566;52.928;10.522;2023-02-27T00:44:47;12.70;;;4.07;;
20810;SDS011;10566;52.928;10.522;2023-02-27T00:47:13;9.30;;;3.90;;
20810;SDS011;10566;52.928;10.522;2023-02-27T00:49:39;12.87;;;3.80;;
20810;SDS011;10566;52.928;10.522;2023-02-27T00:52:05;9.97;;;4.13;;
20810;SDS011;10566;52.928;10.522;2023-02-27T00:54:31;9.03;;;4.00;;
20810;SDS011;10566;52.928;10.522;2023-02-27T00:56:57;12.07;;;3.90;;
20810;SDS011;10566;52.928;10.522;2023-02-27T00:59:23;9.50;;;3.87;;
20810;SDS011;10566;52.928;10.522;2023-02-27T01:01:50;13.17;;;3.90;;
20810;SDS011;10566;52.928;10.522;2023-02-27T01:04:16;10.20;;;4.03;;
20810;SDS011;10566;52.928;10.522;2023-02-27T01:06:42;13.17;;;4.30;;
20810;SDS011;10566;52.928;10.522;2023-02-27T01:09:08;11.13;;;4.17;;
20810;SDS011;10566;52.928;10.522;2023-02-27T01:11:34;10.23;;;4.30;;
20810;SDS011;10566;52.928;10.522;2023-02-27T01:14:00;9.10;;;4.47;;
20810;SDS011;10566;52.928;10.522;2023-02-27T01:16:26;12.33;;;4.73;;
20810;SDS011;10566;52.928;10.522;2023-02-27T01:18:52;10.03;;;4.13;;
20810;SDS011;10566;52.928;10.522;2023-02-27T01:21:18;10.63;;;4.00;;
20810;SDS011;10566;52.928;10.522;2023-02-27T01:23:44;10.03;;;3.90;;
20810;SDS011;10566;52.928;10.522;2023-02-27T01:26:10;12.10;;;3.90;;
20810;SDS011;10566;52.928;10.522;2023-02-27T01:28:36;8.97;;;3.93;;
20810;SDS011;10566;52.928;10.522;2023-02-27T01:31:02;8.90;;;3.20;;
20810;SDS011;10566;52.928;10.522;2023-02-27T01:33:29;8.90;;;3.40;;
20810;SDS011;10566;52.928;10.522;2023-02-27T01:35:55;8.37;;;3.13;;
20810;SDS011;10566;52.928;10.522;2023-02-27T01:38:21;7.50;;;3.40;;
20810;SDS011;10566;52.928;10.522;2023-02-27T01:40:47;9.00;;;3.20;;
20810;SDS011;10566;52.928;10.522;2023-02-27T01:43:14;7.13;;;3.03;;
20810;SDS011;10566;52.928;10.522;2023-02-27T01:45:41;9.93;;;3.47;;
20810;SDS011;10566;52.928;10.522;2023-02-27T01:48:13;9.53;;;2.90;;
20810;SDS011;10566;52.928;10.522;2023-02-27T01:50:52;7.77;;;3.40;;
20810;SDS011;10566;52.928;10.522;2023-02-27T01:53:19;13.23;;;3.13;;
20810;SDS011;10566;52.928;10.522;2023-02-27T01:55:50;7.50;;;3.27;;
20810;SDS011;10566;52.928;10.522;2023-02-27T01:58:17;9.43;;;3.30;;
20810;SDS011;10566;52.928;10.522;2023-02-27T02:00:43;6.77;;;3.30;;
20810;SDS011;10566;52.928;10.522;2023-02-27T02:03:16;10.10;;;3.00;;
20810;SDS011;10566;52.928;10.522;2023-02-27T02:05:43;7.17;;;2.93;;
20810;SDS011;10566;52.928;10.522;2023-02-27T02:08:12;7.43;;;3.30;;
20810;SDS011;10566;52.928;10.522;2023-02-27T02:10:38;9.57;;;3.23;;
20810;SDS011;10566;52.928;10.522;2023-02-27T02:13:04;8.10;;;2.93;;
20810;SDS011;10566;52.928;10.522;2023-02-27T02:15:32;9.63;;;3.07;;
20810;SDS011;10566;52.928;10.522;2023-02-27T02:18:16;7.83;;;3.07;;
20810;SDS011;10566;52.928;10.522;2023-02-27T02:21:01;9.67;;;3.33;;
20810;SDS011;10566;52.928;10.522;2023-02-27T02:23:47;11.40;;;3.20;;
20810;SDS011;10566;52.928;10.522;2023-02-27T02:26:21;8.53;;;3.37;;
20810;SDS011;10566;52.928;10.522;2023-02-27T02:31:33;12.67;;;3.47;;
20810;SDS011;10566;52.928;10.522;2023-02-27T02:41:56;8.43;;;3.27;;
20810;SDS011;10566;52.928;10.522;2023-02-27T02:44:29;7.13;;;3.03;;
20810;SDS011;10566;52.928;10.522;2023-02-27T02:47:04;8.33;;;2.93;;
20810;SDS011;10566;52.928;10.522;2023-02-27T02:57:42;6.30;;;3.10;;
20810;SDS011;10566;52.928;10.522;2023-02-27T03:00:13;8.40;;;3.13;;
20810;SDS011;10566;52.928;10.522;2023-02-27T03:02:56;9.53;;;3.33;;
20810;SDS011;10566;52.928;10.522;2023-02-27T03:05:29;8.10;;;2.90;;
20810;SDS011;10566;52.928;10.522;2023-02-27T03:07:57;10.27;;;3.50;;
20810;SDS011;10566;52.928;10.522;2023-02-27T03:10:35;10.20;;;3.60;;
20810;SDS011;10566;52.928;10.522;2023-02-27T03:13:07;7.03;;;3.03;;
20810;SDS011;10566;52.928;10.522;2023-02-27T03:15:39;9.60;;;3.23;;
20810;SDS011;10566;52.928;10.522;2023-02-27T03:18:09;7.20;;;2.87;;
20810;SDS011;10566;52.928;10.522;2023-02-27T03:20:42;7.97;;;2.97;;
20810;SDS011;10566;52.928;10.522;2023-02-27T03:23:11;7.10;;;2.93;;
20810;SDS011;10566;52.928;10.522;2023-02-27T03:25:39;8.83;;;3.60;;
20810;SDS011;10566;52.928;10.522;2023-02-27T03:28:10;5.83;;;2.90;;
20810;SDS011;10566;52.928;10.522;2023-02-27T03:30:39;9.57;;;3.30;;
20810;SDS011;10566;52.928;10.522;2023-02-27T03:33:10;7.20;;;2.90;;
20810;SDS011;10566;52.928;10.522;2023-02-27T03:35:43;8.40;;;3.37;;
20810;SDS011;10566;52.928;10.522;2023-02-27T03:43:30;11.33;;;3.60;;
20810;SDS011;10566;52.928;10.522;2023-02-27T03:46:12;7.13;;;2.87;;
20810;SDS011;10566;52.928;10.522;2023-02-27T03:48:40;6.57;;;3.10;;
20810;SDS011;10566;52.928;10.522;2023-02-27T03:51:10;8.97;;;2.90;;
20810;SDS011;10566;52.928;10.522;2023-02-27T03:54:23;10.33;;;3.47;;
20810;SDS011;10566;52.928;10.522;2023-02-27T03:56:37;8.10;;;3.57;;
20810;SDS011;10566;52.928;10.522;2023-02-27T03:59:07;9.03;;;3.80;;
20810;SDS011;10566;52.928;10.522;2023-02-27T04:01:33;11.73;;;3.33;;
20810;SDS011;10566;52.928;10.522;2023-02-27T04:04:02;9.90;;;3.57;;
20810;SDS011;10566;52.928;10.522;2023-02-27T04:06:30;9.67;;;3.70;;
20810;SDS011;10566;52.928;10.522;2023-02-27T04:09:20;9.47;;;3.70;;
20810;SDS011;10566;52.928;10.522;2023-02-27T04:12:01;8.80;;;4.00;;
20810;SDS011;10566;52.928;10.522;2023-02-27T04:14:35;9.77;;;4.20;;
20810;SDS011;10566;52.928;10.522;2023-02-27T04:19:52;13.27;;;3.83;;
20810;SDS011;10566;52.928;10.522;2023-02-27T04:22:36;12.20;;;3.80;;
20810;SDS011;10566;52.928;10.522;2023-02-27T04:25:25;9.47;;;3.97;;
20810;SDS011;10566;52.928;10.522;2023-02-27T04:28:04;10.13;;;3.43;;
20810;SDS011;10566;52.928;10.522;2023-02-27T04:31:06;12.37;;;4.03;;
20810;SDS011;10566;52.928;10.522;2023-02-27T04:33:32;9.63;;;4.30;;
20810;SDS011;10566;52.928;10.522;2023-02-27T04:36:07;10.17;;;3.80;;
20810;SDS011;10566;52.928;10.522;2023-02-27T04:38:38;10.60;;;3.87;;
20810;SDS011;10566;52.928;10.522;2023-02-27T04:41:13;14.50;;;3.80;;
20810;SDS011;10566;52.928;10.522;2023-02-27T04:43:41;10.80;;;4.00;;
20810;SDS011;10566;52.928;10.522;2023-02-27T04:46:08;9.87;;;3.73;;
20810;SDS011;10566;52.928;10.522;2023-02-27T04:48:57;7.20;;;3.70;;
20810;SDS011;10566;52.928;10.522;2023-02-27T04:51:25;9.40;;;3.67;;
20810;SDS011;10566;52.928;10.522;2023-02-27T04:56:26;11.60;;;4.10;;
20810;SDS011;10566;52.928;10.522;2023-02-27T04:58:56;10.27;;;4.30;;
20810;SDS011;10566;52.928;10.522;2023-02-27T05:01:24;10.73;;;4.37;;
20810;SDS011;10566;52.928;10.522;2023-02-27T05:03:54;11.30;;;4.40;;
20810;SDS011;10566;52.928;10.522;2023-02-27T05:06:22;13.50;;;4.20;;
20810;SDS011;10566;52.928;10.522;2023-02-27T05:08:53;11.23;;;4.33;;
20810;SDS011;10566;52.928;10.522;2023-02-27T05:11:25;13.10;;;4.57;;
20810;SDS011;10566;52.928;10.522;2023-02-27T05:13:58;14.00;;;4.90;;
20810;SDS011;10566;52.928;10.522;2023-02-27T05:16:28;13.23;;;4.57;;
20810;SDS011;10566;52.928;10.522;2023-02-27T05:18:57;12.63;;;4.60;;
20810;SDS011;10566;52.928;10.522;2023-02-27T05:21:25;9.33;;;4.47;;
20810;SDS011;10566;52.928;10.522;2023-02-27T05:24:10;8.37;;;4.00;;
20810;SDS011;10566;52.928;10.522;2023-02-27T05:31:54;15.60;;;4.63;;
20810;SDS011;10566;52.928;10.522;2023-02-27T05:34:25;10.53;;;4.37;;
20810;SDS011;10566;52.928;10.522;2023-02-27T05:36:54;12.17;;;4.70;;
20810;SDS011;10566;52.928;10.522;2023-02-27T05:39:22;12.80;;;5.27;;
20810;SDS011;10566;52.928;10.522;2023-02-27T05:41:53;8.90;;;4.23;;
20810;SDS011;10566;52.928;10.522;2023-02-27T05:44:22;11.00;;;4.40;;
20810;SDS011;10566;52.928;10.522;2023-02-27T05:46:59;8.07;;;4.07;;
20810;SDS011;10566;52.928;10.522;2023-02-27T05:52:13;9.57;;;4.10;;
20810;SDS011;10566;52.928;10.522;2023-02-27T05:54:42;10.57;;;4.23;;
20810;SDS011;10566;52.928;10.522;2023-02-27T05:57:11;12.00;;;3.70;;
20810;SDS011;10566;52.928;10.522;2023-02-27T05:59:50;9.77;;;3.87;;
20810;SDS011;10566;52.928;10.522;2023-02-27T06:02:19;9.57;;;3.43;;
20810;SDS011;10566;52.928;10.522;2023-02-27T06:04:45;9.23;;;3.70;;
20810;SDS011;10566;52.928;10.522;2023-02-27T06:07:12;10.63;;;4.07;;
20810;SDS011;10566;52.928;10.522;2023-02-27T06:09:38;8.07;;;3.50;;
20810;SDS011;10566;52.928;10.522;2023-02-27T06:12:04;9.43;;;3.90;;
20810;SDS011;10566;52.928;10.522;2023-02-27T06:14:30;9.40;;;3.80;;
20810;SDS011;10566;52.928;10.522;2023-02-27T06:17:01;10.23;;;4.07;;
20810;SDS011;10566;52.928;10.522;2023-02-27T06:19:30;12.20;;;4.47;;
20810;SDS011;10566;52.928;10.522;2023-02-27T06:21:56;11.00;;;4.30;;
20810;SDS011;10566;52.928;10.522;2023-02-27T06:24:22;12.10;;;4.70;;
20810;SDS011;10566;52.928;10.522;2023-02-27T06:26:52;13.03;;;5.50;;
20810;SDS011;10566;52.928;10.522;2023-02-27T06:29:22;11.40;;;5.47;;
20810;SDS011;10566;52.928;10.522;2023-02-27T06:31:48;11.67;;;4.83;;
20810;SDS011;10566;52.928;10.522;2023-02-27T06:34:15;14.57;;;5.00;;
20810;SDS011;10566;52.928;10.522;2023-02-27T06:36:41;12.20;;;5.67;;
20810;SDS011;10566;52.928;10.522;2023-02-27T06:39:07;15.07;;;6.37;;
20810;SDS011;10566;52.928;10.522;2023-02-27T06:41:33;13.23;;;5.90;;
20810;SDS011;10566;52.928;10.522;2023-02-27T06:43:59;13.63;;;6.50;;
20810;SDS011;10566;52.928;10.522;2023-02-27T06:46:25;12.83;;;6.17;;
20810;SDS011;10566;52.928;10.522;2023-02-27T06:48:51;14.70;;;6.57;;
20810;SDS011;10566;52.928;10.522;2023-02-27T06:51:17;15.70;;;6.50;;
20810;SDS011;10566;52.928;10.522;2023-02-27T06:53:43;13.90;;;6.97;;
20810;SDS011;10566;52.928;10.522;2023-02-27T06:56:09;18.13;;;7.07;;
20810;SDS011;10566;52.928;10.522;2023-02-27T06:58:35;15.23;;;6.67;;
20810;SDS011;10566;52.928;10.522;2023-02-27T07:01:01;12.93;;;6.83;;
20810;SDS011;10566;52.928;10.522;2023-02-27T07:03:27;13.57;;;6.60;;
20810;SDS011;10566;52.928;10.522;2023-02-27T07:05:53;16.70;;;7.57;;
20810;SDS011;10566;52.928;10.522;2023-02-27T07:08:19;17.47;;;7.87;;
20810;SDS011;10566;52.928;10.522;2023-02-27T07:10:45;17.23;;;7.60;;
20810;SDS011;10566;52.928;10.522;2023-02-27T07:13:13;20.87;;;7.67;;
20810;SDS011;10566;52.928;10.522;2023-02-27T07:15:39;18.17;;;8.43;;
20810;SDS011;10566;52.928;10.522;2023-02-27T07:18:05;19.83;;;8.87;;
20810;SDS011;10566;52.928;10.522;2023-02-27T07:20:31;18.10;;;8.43;;
20810;SDS011;10566;52.928;10.522;2023-02-27T07:22:57;15.93;;;8.10;;
20810;SDS011;10566;52.928;10.522;2023-02-27T07:25:23;15.83;;;7.70;;
20810;SDS011;10566;52.928;10.522;2023-02-27T07:27:49;16.40;;;7.30;;
20810;SDS011;10566;52.928;10.522;2023-02-27T07:30:15;17.43;;;6.93;;
20810;SDS011;10566;52.928;10.522;2023-02-27T07:32:42;18.27;;;7.20;;
20810;SDS011;10566;52.928;10.522;2023-02-27T07:35:08;15.87;;;6.90;;
20810;SDS011;10566;52.928;10.522;2023-02-27T07:37:34;16.10;;;7.63;;
20810;SDS011;10566;52.928;10.522;2023-02-27T07:40:01;14.27;;;6.83;;
20810;SDS011;10566;52.928;10.522;2023-02-27T07:42:27;17.63;;;7.33;;
20810;SDS011;10566;52.928;10.522;2023-02-27T07:44:53;17.47;;;8.07;;
20810;SDS011;10566;52.928;10.522;2023-02-27T07:47:20;15.33;;;7.17;;
20810;SDS011;10566;52.928;10.522;2023-02-27T07:49:46;14.93;;;7.80;;
20810;SDS011;10566;52.928;10.522;2023-02-27T07:52:12;15.80;;;7.57;;
20810;SDS011;10566;52.928;10.522;2023-02-27T07:54:38;15.57;;;7.90;;
20810;SDS011;10566;52.928;10.522;2023-02-27T07:57:04;14.27;;;8.40;;
20810;SDS011;10566;52.928;10.522;2023-02-27T07:59:30;14.77;;;7.20;;
20810;SDS011;10566;52.928;10.522;2023-02-27T08:01:57;11.60;;;6.07;;
20810;SDS011;10566;52.928;10.522;2023-02-27T08:04:24;15.13;;;7.20;;
20810;SDS011;10566;52.928;10.522;2023-02-27T08:06:50;12.27;;;6.60;;
20810;SDS011;10566;52.928;10.522;2023-02-27T08:09:16;11.90;;;6.40;;
20810;SDS011;10566;52.928;10.522;2023-02-27T08:11:42;12.60;;;6.20;;
20810;SDS011;10566;52.928;10.522;2023-02-27T08:14:08;10.60;;;6.20;;
20810;SDS011;10566;52.928;10.522;2023-02-27T08:16:34;13.63;;;6.77;;
20810;SDS011;10566;52.928;10.522;2023-02-27T08:19:01;35.77;;;18.67;;
20810;SDS011;10566;52.928;10.522;2023-02-27T08:21:27;19.77;;;10.43;;
20810;SDS011;10566;52.928;10.522;2023-02-27T08:23:53;17.43;;;9.00;;
20810;SDS011;10566;52.928;10.522;2023-02-27T08:26:20;17.37;;;9.47;;
20810;SDS011;10566;52.928;10.522;2023-02-27T08:28:46;18.37;;;9.40;;
20810;SDS011;10566;52.928;10.522;2023-02-27T08:31:12;18.70;;;10.60;;
20810;SDS011;10566;52.928;10.522;2023-02-27T08:33:38;15.60;;;7.80;;
20810;SDS011;10566;52.928;10.522;2023-02-27T08:36:04;13.40;;;6.60;;
20810;SDS011;10566;52.928;10.522;2023-02-27T08:38:31;17.13;;;8.73;;
20810;SDS011;10566;52.928;10.522;2023-02-27T08:40:58;11.37;;;6.80;;
20810;SDS011;10566;52.928;10.522;2023-02-27T08:43:24;13.80;;;7.70;;
20810;SDS011;10566;52.928;10.522;2023-02-27T08:45:50;14.87;;;9.27;;
20810;SDS011;10566;52.928;10.522;2023-02-27T08:48:16;18.13;;;8.13;;
20810;SDS011;10566;52.928;10.522;2023-02-27T08:50:42;19.20;;;9.80;;
20810;SDS011;10566;52.928;10.522;2023-02-27T08:53:09;16.30;;;7.70;;
20810;SDS011;10566;52.928;10.522;2023-02-27T08:55:35;16.87;;;8.20;;
20810;SDS011;10566;52.928;10.522;2023-02-27T08:58:01;17.03;;;7.93;;
20810;SDS011;10566;52.928;10.522;2023-02-27T09:00:27;14.53;;;7.37;;
20810;SDS011;10566;52.928;10.522;2023-02-27T09:02:54;13.70;;;7.07;;
20810;SDS011;10566;52.928;10.522;2023-02-27T09:05:20;17.83;;;7.47;;
20810;SDS011;10566;52.928;10.522;2023-02-27T09:07:47;17.30;;;7.67;;
20810;SDS011;10566;52.928;10.522;2023-02-27T09:10:13;19.03;;;7.87;;
20810;SDS011;10566;52.928;10.522;2023-02-27T09:12:39;19.37;;;7.20;;
20810;SDS011;10566;52.928;10.522;2023-02-27T09:15:05;16.87;;;8.03;;
20810;SDS011;10566;52.928;10.522;2023-02-27T09:17:32;15.03;;;7.03;;
20810;SDS011;10566;52.928;10.522;2023-02-27T09:19:58;16.30;;;7.17;;
20810;SDS011;10566;52.928;10.522;2023-02-27T09:22:24;14.70;;;7.03;;
20810;SDS011;10566;52.928;10.522;2023-02-27T09:24:50;16.07;;;7.13;;
20810;SDS011;10566;52.928;10.522;2023-02-27T09:27:16;15.90;;;7.07;;
20810;SDS011;10566;52.928;10.522;2023-02-27T09:29:42;14.63;;;7.93;;
20810;SDS011;10566;52.928;10.522;2023-02-27T09:32:08;13.57;;;6.50;;
20810;SDS011;10566;52.928;10.522;2023-02-27T09:34:34;15.40;;;5.80;;
20810;SDS011;10566;52.928;10.522;2023-02-27T09:37:00;13.37;;;5.07;;
20810;SDS011;10566;52.928;10.522;2023-02-27T09:39:27;11.63;;;4.80;;
20810;SDS011;10566;52.928;10.522;2023-02-27T09:41:55;11.07;;;4.87;;
20810;SDS011;10566;52.928;10.522;2023-02-27T09:44:24;16.13;;;5.60;;
20810;SDS011;10566;52.928;10.522;2023-02-27T09:46:51;14.23;;;5.97;;
20810;SDS011;10566;52.928;10.522;2023-02-27T09:49:18;13.50;;;5.03;;
20810;SDS011;10566;52.928;10.522;2023-02-27T09:51:45;12.87;;;4.30;;
20810;SDS011;10566;52.928;10.522;2023-02-27T09:54:12;11.73;;;4.10;;
20810;SDS011;10566;52.928;10.522;2023-02-27T09:56:41;14.53;;;4.00;;
20810;SDS011;10566;52.928;10.522;2023-02-27T10:01:50;14.37;;;6.13;;
20810;SDS011;10566;52.928;10.522;2023-02-27T10:06:51;12.60;;;5.90;;
20810;SDS011;10566;52.928;10.522;2023-02-27T10:14:15;15.07;;;4.90;;
20810;SDS011;10566;52.928;10.522;2023-02-27T10:16:44;11.03;;;3.90;;
20810;SDS011;10566;52.928;10.522;2023-02-27T10:19:15;10.70;;;3.50;;
20810;SDS011;10566;52.928;10.522;2023-02-27T10:21:43;11.13;;;3.53;;
20810;SDS011;10566;52.928;10.522;2023-02-27T10:24:32;11.73;;;3.80;;
20810;SDS011;10566;52.928;10.522;2023-02-27T10:26:57;9.73;;;3.43;;
20810;SDS011;10566;52.928;10.522;2023-02-27T10:31:52;7.67;;;3.33;;
20810;SDS011;10566;52.928;10.522;2023-02-27T10:34:19;8.60;;;3.10;;
20810;SDS011;10566;52.928;10.522;2023-02-27T10:36:46;11.13;;;3.67;;
20810;SDS011;10566;52.928;10.522;2023-02-27T10:39:14;9.73;;;3.30;;
20810;SDS011;10566;52.928;10.522;2023-02-27T10:41:41;9.37;;;3.70;;
20810;SDS011;10566;52.928;10.522;2023-02-27T10:44:08;10.47;;;4.00;;
20810;SDS011;10566;52.928;10.522;2023-02-27T10:46:35;12.03;;;4.60;;
20810;SDS011;10566;52.928;10.522;2023-02-27T10:49:15;10.50;;;3.90;;
20810;SDS011;10566;52.928;10.522;2023-02-27T10:51:41;10.23;;;3.93;;
20810;SDS011;10566;52.928;10.522;2023-02-27T10:56:41;11.50;;;3.50;;
20810;SDS011;10566;52.928;10.522;2023-02-27T10:59:20;10.17;;;3.90;;
20810;SDS011;10566;52.928;10.522;2023-02-27T11:01:54;9.27;;;4.30;;
20810;SDS011;10566;52.928;10.522;2023-02-27T11:04:24;10.17;;;3.57;;
20810;SDS011;10566;52.928;10.522;2023-02-27T11:06:51;10.10;;;3.70;;
20810;SDS011;10566;52.928;10.522;2023-02-27T11:09:28;9.30;;;3.63;;
20810;SDS011;10566;52.928;10.522;2023-02-27T11:12:08;13.00;;;3.83;;
20810;SDS011;10566;52.928;10.522;2023-02-27T11:14:37;12.67;;;3.20;;
20810;SDS011;10566;52.928;10.522;2023-02-27T11:17:19;12.17;;;3.47;;
20810;SDS011;10566;52.928;10.522;2023-02-27T11:19:46;10.37;;;2.97;;
20810;SDS011;10566;52.928;10.522;2023-02-27T11:22:15;8.77;;;2.90;;
20810;SDS011;10566;52.928;10.522;2023-02-27T11:24:43;10.53;;;3.13;;
20810;SDS011;10566;52.928;10.522;2023-02-27T11:27:25;9.17;;;2.93;;
20810;SDS011;10566;52.928;10.522;2023-02-27T11:30:06;7.13;;;2.47;;
20810;SDS011;10566;52.928;10.522;2023-02-27T11:32:46;8.23;;;2.70;;
20810;SDS011;10566;52.928;10.522;2023-02-27T11:37:52;8.60;;;2.50;;
20810;SDS011;10566;52.928;10.522;2023-02-27T11:40:19;7.00;;;2.30;;
20810;SDS011;10566;52.928;10.522;2023-02-27T11:42:47;6.53;;;1.90;;
20810;SDS011;10566;52.928;10.522;2023-02-27T11:47:52;7.97;;;2.10;;
20810;SDS011;10566;52.928;10.522;2023-02-27T11:53:23;6.60;;;1.37;;
20810;SDS011;10566;52.928;10.522;2023-02-27T11:55:55;5.20;;;1.83;;
20810;SDS011;10566;52.928;10.522;2023-02-27T11:58:24;6.40;;;1.40;;
20810;SDS011;10566;52.928;10.522;2023-02-27T12:00:53;6.67;;;1.50;;
20810;SDS011;10566;52.928;10.522;2023-02-27T12:03:23;4.13;;;1.40;;
20810;SDS011;10566;52.928;10.522;2023-02-27T12:05:53;4.37;;;1.40;;
20810;SDS011;10566;52.928;10.522;2023-02-27T12:08:29;4.40;;;1.17;;
20810;SDS011;10566;52.928;10.522;2023-02-27T12:11:00;5.10;;;1.10;;
20810;SDS011;10566;52.928;10.522;2023-02-27T12:13:29;3.23;;;0.97;;
20810;SDS011;10566;52.928;10.522;2023-02-27T12:16:02;6.37;;;1.33;;
20810;SDS011;10566;52.928;10.522;2023-02-27T12:18:34;4.13;;;1.27;;
20810;SDS011;10566;52.928;10.522;2023-02-27T12:21:03;7.20;;;1.20;;
20810;SDS011;10566;52.928;10.522;2023-02-27T12:23:41;4.13;;;1.20;;
20810;SDS011;10566;52.928;10.522;2023-02-27T12:26:13;3.57;;;0.97;;
20810;SDS011;10566;52.928;10.522;2023-02-27T12:28:43;5.60;;;1.23;;
20810;SDS011;10566;52.928;10.522;2023-02-27T12:31:29;6.20;;;1.70;;
20810;SDS011;10566;52.928;10.522;2023-02-27T12:34:11;10.17;;;1.90;;
20810;SDS011;10566;52.928;10.522;2023-02-27T12:36:39;5.10;;;1.57;;
20810;SDS011;10566;52.928;10.522;2023-02-27T12:39:07;5.57;;;1.63;;
20810;SDS011;10566;52.928;10.522;2023-02-27T12:44:16;3.97;;;1.43;;
20810;SDS011;10566;52.928;10.522;2023-02-27T12:46:47;5.83;;;1.60;;
20810;SDS011;10566;52.928;10.522;2023-02-27T13:00:16;4.83;;;1.33;;
20810;SDS011;10566;52.928;10.522;2023-02-27T13:05:20;3.87;;;1.20;;
20810;SDS011;10566;52.928;10.522;2023-02-27T13:10:29;3.83;;;1.20;;
20810;SDS011;10566;52.928;10.522;2023-02-27T13:13:02;4.20;;;1.40;;
20810;SDS011;10566;52.928;10.522;2023-02-27T13:15:52;4.23;;;1.47;;
20810;SDS011;10566;52.928;10.522;2023-02-27T13:18:36;3.83;;;1.00;;
20810;SDS011;10566;52.928;10.522;2023-02-27T13:25:59;4.10;;;1.50;;
20810;SDS011;10566;52.928;10.522;2023-02-27T13:28:27;4.33;;;1.30;;
20810;SDS011;10566;52.928;10.522;2023-02-27T13:33:34;3.77;;;1.10;;
20810;SDS011;10566;52.928;10.522;2023-02-27T13:36:17;4.27;;;1.03;;
20810;SDS011;10566;52.928;10.522;2023-02-27T13:38:46;2.57;;;1.10;;
20810;SDS011;10566;52.928;10.522;2023-02-27T13:43:48;4.07;;;1.00;;
20810;SDS011;10566;52.928;10.522;2023-02-27T13:48:51;5.87;;;1.10;;
20810;SDS011;10566;52.928;10.522;2023-02-27T13:57:04;3.47;;;1.30;;
20810;SDS011;10566;52.928;10.522;2023-02-27T13:59:32;3.93;;;1.17;;
20810;SDS011;10566;52.928;10.522;2023-02-27T14:01:59;4.90;;;1.47;;
20810;SDS011;10566;52.928;10.522;2023-02-27T14:04:29;6.00;;;1.40;;
20810;SDS011;10566;52.928;10.522;2023-02-27T14:07:08;3.77;;;1.00;;
20810;SDS011;10566;52.928;10.522;2023-02-27T14:09:37;4.00;;;1.00;;
20810;SDS011;10566;52.928;10.522;2023-02-27T14:12:05;3.53;;;1.10;;
20810;SDS011;10566;52.928;10.522;2023-02-27T14:14:42;3.83;;;1.30;;
20810;SDS011;10566;52.928;10.522;2023-02-27T14:17:10;4.00;;;1.10;;
20810;SDS011;10566;52.928;10.522;2023-02-27T14:25:25;3.97;;;1.10;;
20810;SDS011;10566;52.928;10.522;2023-02-27T14:35:36;6.47;;;2.00;;
20810;SDS011;10566;52.928;10.522;2023-02-27T14:38:06;4.47;;;1.70;;
20810;SDS011;10566;52.928;10.522;2023-02-27T14:40:34;5.03;;;1.40;;
20810;SDS011;10566;52.928;10.522;2023-02-27T14:45:27;5.10;;;1.70;;
20810;SDS011;10566;52.928;10.522;2023-02-27T14:47:54;5.23;;;1.40;;
20810;SDS011;10566;52.928;10.522;2023-02-27T14:50:31;8.33;;;1.60;;
20810;SDS011;10566;52.928;10.522;2023-02-27T14:52:58;3.53;;;1.40;;
20810;SDS011;10566;52.928;10.522;2023-02-27T14:55:29;4.47;;;1.60;;
20810;SDS011;10566;52.928;10.522;2023-02-27T14:57:57;4.67;;;1.40;;
20810;SDS011;10566;52.928;10.522;2023-02-27T15:00:31;4.83;;;1.30;;
20810;SDS011;10566;52.928;10.522;2023-02-27T15:02:58;5.77;;;1.40;;
20810;SDS011;10566;52.928;10.522;2023-02-27T15:05:27;4.93;;;1.80;;
20810;SDS011;10566;52.928;10.522;2023-02-27T15:07:54;5.47;;;1.50;;
20810;SDS011;10566;52.928;10.522;2023-02-27T15:10:27;3.97;;;1.30;;
20810;SDS011;10566;52.928;10.522;2023-02-27T15:12:58;4.93;;;1.23;;
20810;SDS011;10566;52.928;10.522;2023-02-27T15:15:24;5.63;;;2.20;;
20810;SDS011;10566;52.928;10.522;2023-02-27T15:17:51;5.10;;;1.40;;
20810;SDS011;10566;52.928;10.522;2023-02-27T15:20:23;6.80;;;1.67;;
20810;SDS011;10566;52.928;10.522;2023-02-27T15:22:50;4.73;;;1.60;;
20810;SDS011;10566;52.928;10.522;2023-02-27T15:25:30;6.50;;;1.80;;
20810;SDS011;10566;52.928;10.522;2023-02-27T15:27:59;4.37;;;1.20;;
20810;SDS011;10566;52.928;10.522;2023-02-27T15:30:25;4.27;;;1.23;;
20810;SDS011;10566;52.928;10.522;2023-02-27T15:32:52;3.83;;;1.30;;
20810;SDS011;10566;52.928;10.522;2023-02-27T15:35:19;5.43;;;1.30;;
20810;SDS011;10566;52.928;10.522;2023-02-27T15:37:52;4.73;;;1.30;;
20810;SDS011;10566;52.928;10.522;2023-02-27T15:40:19;6.87;;;1.60;;
20810;SDS011;10566;52.928;10.522;2023-02-27T15:42:46;4.53;;;1.30;;
20810;SDS011;10566;52.928;10.522;2023-02-27T15:45:19;7.10;;;1.83;;
20810;SDS011;10566;52.928;10.522;2023-02-27T15:47:46;3.63;;;1.23;;
20810;SDS011;10566;52.928;10.522;2023-02-27T15:52:51;5.57;;;1.27;;
20810;SDS011;10566;52.928;10.522;2023-02-27T15:55:23;4.97;;;1.30;;
20810;SDS011;10566;52.928;10.522;2023-02-27T15:57:50;4.63;;;1.20;;
20810;SDS011;10566;52.928;10.522;2023-02-27T16:00:16;5.47;;;1.33;;
20810;SDS011;10566;52.928;10.522;2023-02-27T16:02:53;3.87;;;1.03;;
20810;SDS011;10566;52.928;10.522;2023-02-27T16:05:21;4.73;;;1.33;;
20810;SDS011;10566;52.928;10.522;2023-02-27T16:07:48;5.80;;;1.40;;
20810;SDS011;10566;52.928;10.522;2023-02-27T16:10:22;3.33;;;1.10;;
20810;SDS011;10566;52.928;10.522;2023-02-27T16:12:48;5.07;;;1.40;;
20810;SDS011;10566;52.928;10.522;2023-02-27T16:17:57;5.97;;;2.63;;
20810;SDS011;10566;52.928;10.522;2023-02-27T16:20:29;5.73;;;2.20;;
20810;SDS011;10566;52.928;10.522;2023-02-27T16:23:12;6.60;;;2.20;;
20810;SDS011;10566;52.928;10.522;2023-02-27T16:25:40;12.53;;;5.20;;
20810;SDS011;10566;52.928;10.522;2023-02-27T16:28:13;13.30;;;5.53;;
20810;SDS011;10566;52.928;10.522;2023-02-27T16:30:39;12.23;;;6.50;;
20810;SDS011;10566;52.928;10.522;2023-02-27T16:33:19;16.23;;;8.90;;
20810;SDS011;10566;52.928;10.522;2023-02-27T16:35:47;15.57;;;10.17;;
20810;SDS011;10566;52.928;10.522;2023-02-27T16:38:14;21.50;;;11.23;;
20810;SDS011;10566;52.928;10.522;2023-02-27T16:40:41;22.77;;;11.07;;